createdAt,value
2019-04-30T00:01:58.987Z,23.27
2019-04-30T00:04:29.852Z,24.83
2019-04-30T00:22:12.760Z,24.37
2019-04-30T00:24:46.900Z,26.93
2019-04-30T00:27:15.098Z,25.27
2019-04-30T00:29:45.761Z,26.53
2019-04-30T00:32:16.043Z,26.80
2019-04-30T00:34:46.067Z,25.63
2019-04-30T00:37:18.778Z,26.77
2019-04-30T00:39:51.142Z,27.30
2019-04-30T00:42:24.118Z,24.57
2019-04-30T00:44:49.889Z,25.73
2019-04-30T00:47:19.446Z,28.50
2019-04-30T00:49:52.052Z,27.30
2019-04-30T00:52:20.411Z,30.40
2019-04-30T00:54:50.188Z,27.93
2019-04-30T00:57:20.373Z,27.33
2019-04-30T00:59:49.949Z,28.00
2019-04-30T01:02:30.854Z,26.97
2019-04-30T01:04:58.256Z,26.83
2019-04-30T01:07:26.564Z,28.17
2019-04-30T01:09:56.291Z,29.03
2019-04-30T01:12:30.938Z,27.63
2019-04-30T01:14:59.026Z,28.20
2019-04-30T01:17:29.945Z,25.70
2019-04-30T01:20:00.015Z,26.70
2019-04-30T01:22:32.909Z,25.93
2019-04-30T01:25:08.025Z,26.33
2019-04-30T01:27:32.797Z,26.47
2019-04-30T01:30:04.353Z,25.33
2019-04-30T01:32:33.958Z,26.80
2019-04-30T01:35:03.609Z,26.23
2019-04-30T01:37:33.168Z,26.47
2019-04-30T01:40:10.517Z,27.33
2019-04-30T01:42:35.483Z,25.27
2019-04-30T01:45:08.667Z,24.07
2019-04-30T01:47:39.715Z,26.33
2019-04-30T01:50:09.752Z,26.20
2019-04-30T01:52:54.425Z,26.83
2019-04-30T01:55:26.590Z,26.03
2019-04-30T01:58:00.535Z,26.13
2019-04-30T02:00:34.135Z,25.67
2019-04-30T02:03:03.744Z,25.50
2019-04-30T02:05:33.297Z,25.33
2019-04-30T02:08:02.913Z,24.77
2019-04-30T02:10:32.434Z,23.70
2019-04-30T02:13:01.994Z,23.97
2019-04-30T02:15:31.604Z,25.27
2019-04-30T02:18:01.177Z,24.00
2019-04-30T02:20:30.722Z,26.67
2019-04-30T02:23:00.256Z,27.13
2019-04-30T02:25:29.782Z,27.13
2019-04-30T02:27:59.671Z,26.17
2019-04-30T02:30:30.967Z,26.47
2019-04-30T02:33:00.909Z,27.73
2019-04-30T02:35:49.951Z,28.13
2019-04-30T02:38:20.501Z,27.27
2019-04-30T02:40:51.340Z,28.03
2019-04-30T02:43:23.418Z,30.93
2019-04-30T02:45:55.984Z,27.47
2019-04-30T02:48:29.282Z,27.10
2019-04-30T02:51:00.758Z,30.63
2019-04-30T02:54:00.764Z,29.77
2019-04-30T02:56:30.510Z,28.90
2019-04-30T02:59:03.363Z,29.37
2019-04-30T03:01:31.270Z,29.23
2019-04-30T03:04:00.939Z,29.37
2019-04-30T03:06:30.694Z,28.13
2019-04-30T03:09:01.069Z,29.27
2019-04-30T03:11:30.876Z,28.40
2019-04-30T03:14:00.470Z,27.93
2019-04-30T03:16:31.788Z,26.70
2019-04-30T03:19:04.157Z,26.80
2019-04-30T03:21:53.469Z,26.53
2019-04-30T03:24:23.620Z,25.27
2019-04-30T03:26:53.196Z,25.97
2019-04-30T03:29:23.863Z,27.37
2019-04-30T03:31:53.761Z,25.60
2019-04-30T03:34:25.883Z,26.17
2019-04-30T03:36:54.678Z,23.53
2019-04-30T03:39:24.337Z,25.67
2019-04-30T03:41:53.885Z,26.00
2019-04-30T03:44:25.919Z,25.77
2019-04-30T03:46:54.785Z,25.03
2019-04-30T03:49:24.346Z,24.30
2019-04-30T03:51:53.861Z,25.47
2019-04-30T03:54:24.613Z,24.43
2019-04-30T03:56:55.856Z,25.63
2019-04-30T03:59:25.648Z,25.00
2019-04-30T04:02:00.681Z,25.37
2019-04-30T04:04:32.857Z,24.70
2019-04-30T04:07:20.442Z,25.20
2019-04-30T04:09:52.509Z,25.47
2019-04-30T04:12:23.810Z,25.03
2019-04-30T04:14:53.944Z,25.47
2019-04-30T04:17:23.925Z,24.60
2019-04-30T04:19:53.485Z,24.67
2019-04-30T04:22:23.077Z,23.40
2019-04-30T04:24:52.654Z,24.87
2019-04-30T04:27:22.167Z,24.90
2019-04-30T04:29:51.724Z,24.83
2019-04-30T04:32:24.468Z,23.80
2019-04-30T04:34:52.780Z,24.57
2019-04-30T04:37:23.424Z,25.37
2019-04-30T04:39:53.139Z,25.17
2019-04-30T04:42:22.809Z,23.77
2019-04-30T04:44:52.386Z,23.83
2019-04-30T04:47:22.098Z,23.90
2019-04-30T04:49:53.824Z,22.70
2019-04-30T04:52:23.175Z,23.57
2019-04-30T04:54:52.735Z,23.33
2019-04-30T04:57:23.086Z,24.63
2019-04-30T04:59:52.896Z,26.17
2019-04-30T05:02:32.362Z,24.10
2019-04-30T05:05:00.083Z,26.80
2019-04-30T05:07:29.748Z,25.47
2019-04-30T05:10:01.018Z,25.77
2019-04-30T05:12:30.861Z,28.47
2019-04-30T05:15:00.477Z,24.83
2019-04-30T05:17:32.063Z,24.40
2019-04-30T05:20:01.485Z,23.73
2019-04-30T05:22:31.247Z,23.70
2019-04-30T05:25:00.904Z,23.43
2019-04-30T05:27:30.450Z,23.90
2019-04-30T05:30:00.131Z,23.77
2019-04-30T05:32:29.765Z,24.40
2019-04-30T05:34:59.379Z,24.10
2019-04-30T05:37:28.912Z,23.30
2019-04-30T05:40:00.902Z,24.90
2019-04-30T05:42:29.724Z,22.83
2019-04-30T05:44:59.642Z,23.77
2019-04-30T05:47:29.254Z,24.13
2019-04-30T05:49:58.800Z,23.83
2019-04-30T05:52:29.542Z,23.53
2019-04-30T05:55:00.165Z,22.40
2019-04-30T05:57:29.990Z,24.30
2019-04-30T05:59:59.637Z,24.27
2019-04-30T06:02:33.576Z,25.53
2019-04-30T06:05:00.730Z,24.60
2019-04-30T06:07:30.469Z,24.20
2019-04-30T06:10:04.065Z,23.97
2019-04-30T06:12:51.194Z,23.70
2019-04-30T06:15:23.620Z,24.20
2019-04-30T06:18:00.333Z,23.47
2019-04-30T06:20:25.477Z,24.03
2019-04-30T06:22:56.839Z,24.57
2019-04-30T06:25:33.671Z,22.83
2019-04-30T06:27:58.965Z,23.33
2019-04-30T06:30:29.753Z,22.07
2019-04-30T06:33:00.432Z,21.53
2019-04-30T06:35:30.057Z,22.77
2019-04-30T06:37:59.819Z,23.00
2019-04-30T06:40:29.813Z,24.00
2019-04-30T06:43:00.847Z,22.80
2019-04-30T06:45:32.003Z,22.17
2019-04-30T06:48:03.842Z,21.50
2019-04-30T06:50:33.622Z,22.50
2019-04-30T06:53:03.145Z,22.43
2019-04-30T06:55:32.682Z,26.33
2019-04-30T06:58:11.968Z,27.30
2019-04-30T07:00:39.971Z,33.77
2019-04-30T07:03:10.356Z,29.37
2019-04-30T07:05:39.878Z,31.07
2019-04-30T07:08:37.211Z,30.17
2019-04-30T07:11:16.733Z,28.97
2019-04-30T07:13:49.501Z,29.00
2019-04-30T07:16:20.486Z,28.87
2019-04-30T07:18:50.254Z,29.93
2019-04-30T07:21:20.064Z,31.40
2019-04-30T07:23:49.726Z,35.17
2019-04-30T07:26:24.255Z,35.83
2019-04-30T07:28:54.793Z,35.10
2019-04-30T07:31:22.005Z,32.07
2019-04-30T07:33:53.915Z,32.77
2019-04-30T07:36:23.065Z,29.70
2019-04-30T07:38:56.388Z,27.80
2019-04-30T07:41:24.560Z,33.00
2019-04-30T07:43:54.081Z,30.33
2019-04-30T07:46:24.108Z,29.93
2019-04-30T07:48:53.718Z,26.47
2019-04-30T07:51:24.381Z,28.63
2019-04-30T07:53:54.556Z,27.33
2019-04-30T07:56:28.392Z,27.73
2019-04-30T07:58:55.354Z,26.33
2019-04-30T08:01:24.900Z,27.27
2019-04-30T08:03:59.972Z,31.40
2019-04-30T08:06:31.288Z,29.67
2019-04-30T08:09:01.755Z,29.40
2019-04-30T08:11:34.511Z,29.53
2019-04-30T08:14:03.522Z,28.07
2019-04-30T08:16:33.569Z,24.17
2019-04-30T08:19:03.334Z,21.27
2019-04-30T08:21:32.865Z,21.77
2019-04-30T08:24:02.454Z,18.97
2019-04-30T08:26:31.957Z,19.90
2019-04-30T08:29:01.486Z,19.87
2019-04-30T08:31:31.049Z,23.37
2019-04-30T08:34:00.686Z,22.93
2019-04-30T08:36:32.982Z,23.57
2019-04-30T08:39:01.814Z,27.33
2019-04-30T08:41:31.393Z,26.03
2019-04-30T08:44:00.915Z,24.70
2019-04-30T08:46:30.494Z,26.90
2019-04-30T08:49:00.115Z,25.87
2019-04-30T08:51:31.194Z,26.70
2019-04-30T08:54:01.021Z,25.60
2019-04-30T08:56:30.644Z,24.00
2019-04-30T08:59:00.224Z,25.87
2019-04-30T09:01:29.861Z,24.57
2019-04-30T09:03:59.877Z,26.43
2019-04-30T09:06:30.383Z,22.67
2019-04-30T09:09:00.497Z,22.33
2019-04-30T09:11:38.513Z,21.53
2019-04-30T09:14:01.316Z,22.13
2019-04-30T09:16:30.886Z,21.50
2019-04-30T09:19:00.534Z,21.70
2019-04-30T09:21:30.161Z,22.07
2019-04-30T09:23:59.695Z,21.67
2019-04-30T09:26:29.259Z,23.50
2019-04-30T09:28:59.463Z,24.20
2019-04-30T09:31:29.702Z,24.33
2019-04-30T09:34:00.920Z,27.93
2019-04-30T09:36:30.745Z,27.03
2019-04-30T09:39:01.449Z,26.53
2019-04-30T09:41:31.202Z,32.17
2019-04-30T09:44:00.832Z,24.77
2019-04-30T09:46:30.406Z,25.13
2019-04-30T09:48:59.983Z,22.90
2019-04-30T09:51:30.759Z,23.43
2019-04-30T09:54:03.412Z,22.73
2019-04-30T09:56:31.759Z,24.13
2019-04-30T09:59:01.311Z,26.53
2019-04-30T10:01:32.768Z,28.73
2019-04-30T10:04:02.477Z,23.50
2019-04-30T10:06:39.863Z,24.70
2019-04-30T10:09:05.243Z,21.33
2019-04-30T10:11:38.955Z,19.20
2019-04-30T10:14:08.576Z,19.70
2019-04-30T10:16:42.692Z,18.43
2019-04-30T10:19:14.896Z,19.43
2019-04-30T10:21:43.529Z,20.07
2019-04-30T10:24:15.676Z,21.77
2019-04-30T10:26:44.339Z,23.60
2019-04-30T10:29:14.041Z,21.27
2019-04-30T10:31:43.572Z,23.27
2019-04-30T10:34:13.572Z,20.60
2019-04-30T10:36:43.159Z,19.97
2019-04-30T10:39:12.893Z,19.10
2019-04-30T10:41:42.629Z,17.67
2019-04-30T10:44:12.182Z,22.03
2019-04-30T10:46:41.993Z,19.57
2019-04-30T10:49:11.566Z,21.37
2019-04-30T10:51:41.154Z,20.53
2019-04-30T10:54:22.780Z,18.43
2019-04-30T10:56:42.064Z,19.17
2019-04-30T10:59:11.653Z,18.17
2019-04-30T11:01:41.195Z,19.23
2019-04-30T11:04:11.611Z,18.17
2019-04-30T11:06:41.512Z,20.23
2019-04-30T11:09:11.202Z,20.27
2019-04-30T11:11:41.242Z,18.77
2019-04-30T11:14:10.775Z,18.63
2019-04-30T11:16:40.298Z,17.23
2019-04-30T11:19:10.067Z,17.43
2019-04-30T11:21:40.002Z,17.47
2019-04-30T11:24:09.861Z,18.67
2019-04-30T11:26:40.665Z,18.30
2019-04-30T11:29:11.117Z,17.80
2019-04-30T11:31:42.663Z,18.80
2019-04-30T11:34:12.298Z,20.27
2019-04-30T11:36:41.838Z,16.73
2019-04-30T11:39:13.815Z,15.97
2019-04-30T11:41:43.694Z,17.40
2019-04-30T11:44:13.307Z,17.70
2019-04-30T11:47:02.448Z,16.93
2019-04-30T11:49:31.965Z,17.47
2019-04-30T11:52:01.487Z,17.27
2019-04-30T11:54:31.075Z,17.17
2019-04-30T11:57:00.642Z,15.97
2019-04-30T11:59:30.201Z,16.20
2019-04-30T12:02:01.771Z,16.03
2019-04-30T12:04:31.322Z,14.83
2019-04-30T12:07:02.491Z,13.30
2019-04-30T12:09:50.330Z,14.07
2019-04-30T12:12:20.024Z,16.07
2019-04-30T12:14:49.554Z,14.83
2019-04-30T12:17:19.126Z,14.80
2019-04-30T12:19:48.930Z,14.53
2019-04-30T12:22:20.215Z,15.03
2019-04-30T12:25:02.189Z,14.13
2019-04-30T12:27:21.803Z,14.07
2019-04-30T12:29:51.346Z,12.37
2019-04-30T12:32:21.351Z,14.43
2019-04-30T12:34:51.028Z,15.50
2019-04-30T12:37:20.921Z,16.20
2019-04-30T12:39:50.466Z,14.67
2019-04-30T12:42:20.367Z,12.80
2019-04-30T12:44:50.062Z,13.33
2019-04-30T12:47:21.929Z,11.63
2019-04-30T12:49:51.251Z,10.47
2019-04-30T12:52:22.462Z,11.33
2019-04-30T12:54:56.349Z,10.17
2019-04-30T12:57:29.531Z,12.80
2019-04-30T13:00:00.486Z,11.70
2019-04-30T13:02:30.271Z,11.93
2019-04-30T13:05:00.485Z,11.57
2019-04-30T13:07:31.252Z,10.57
2019-04-30T13:10:02.717Z,11.17
2019-04-30T13:12:33.340Z,12.57
2019-04-30T13:15:03.491Z,12.20
2019-04-30T13:17:33.024Z,11.37
2019-04-30T13:20:02.868Z,11.53
2019-04-30T13:22:32.448Z,10.77
2019-04-30T13:25:02.123Z,12.07
2019-04-30T13:27:33.493Z,9.53
2019-04-30T13:30:20.544Z,9.13
2019-04-30T13:32:51.942Z,9.97
2019-04-30T13:35:21.846Z,8.67
2019-04-30T13:37:55.609Z,8.93
2019-04-30T13:40:32.253Z,10.27
2019-04-30T13:43:03.440Z,9.10
2019-04-30T13:45:32.989Z,10.50
2019-04-30T13:48:02.521Z,8.83
2019-04-30T13:50:32.069Z,9.60
2019-04-30T13:53:01.662Z,9.23
2019-04-30T13:55:42.928Z,9.47
2019-04-30T13:58:02.474Z,9.40
2019-04-30T14:00:32.048Z,9.90
2019-04-30T14:03:04.196Z,9.93
2019-04-30T14:05:33.871Z,10.10
2019-04-30T14:08:09.379Z,10.07
2019-04-30T14:10:39.962Z,9.67
2019-04-30T14:13:10.887Z,10.07
2019-04-30T14:15:40.786Z,9.30
2019-04-30T14:18:10.407Z,8.53
2019-04-30T14:20:40.022Z,9.30
2019-04-30T14:23:10.764Z,9.13
2019-04-30T14:25:40.518Z,9.77
2019-04-30T14:28:10.175Z,10.23
2019-04-30T14:30:39.731Z,10.90
2019-04-30T14:33:09.562Z,10.30
2019-04-30T14:35:39.215Z,9.63
2019-04-30T14:38:09.145Z,10.13
2019-04-30T14:40:40.482Z,11.27
2019-04-30T14:43:15.360Z,10.47
2019-04-30T14:45:48.115Z,12.43
2019-04-30T14:48:22.681Z,11.13
2019-04-30T14:50:50.742Z,10.87
2019-04-30T14:53:20.126Z,11.40
2019-04-30T14:56:11.314Z,11.33
2019-04-30T14:58:36.498Z,11.03
2019-04-30T15:01:10.563Z,11.83
2019-04-30T15:03:40.235Z,10.13
2019-04-30T15:06:10.017Z,10.80
2019-04-30T15:08:39.590Z,12.43
2019-04-30T15:11:09.365Z,12.67
2019-04-30T15:13:41.196Z,12.20
2019-04-30T15:16:11.998Z,13.20
2019-04-30T15:18:44.611Z,12.00
2019-04-30T15:21:14.292Z,12.87
2019-04-30T15:24:01.761Z,12.83
2019-04-30T15:26:35.154Z,11.57
2019-04-30T15:29:10.147Z,11.43
2019-04-30T15:31:39.539Z,11.80
2019-04-30T15:34:11.214Z,11.37
2019-04-30T15:36:41.259Z,12.83
2019-04-30T15:39:15.565Z,13.07
2019-04-30T15:41:45.292Z,13.57
2019-04-30T15:44:14.924Z,11.93
2019-04-30T15:46:45.697Z,13.67
2019-04-30T15:49:15.791Z,11.93
2019-04-30T15:51:46.454Z,12.27
2019-04-30T15:54:20.984Z,11.43
2019-04-30T15:56:50.818Z,12.80
2019-04-30T15:59:22.082Z,11.20
2019-04-30T16:01:54.313Z,12.07
2019-04-30T16:04:28.486Z,11.97
2019-04-30T16:07:00.435Z,13.67
2019-04-30T16:09:48.609Z,12.70
2019-04-30T16:12:20.740Z,12.73
2019-04-30T16:14:52.251Z,13.43
2019-04-30T16:17:23.423Z,13.93
2019-04-30T16:19:52.991Z,12.87
2019-04-30T16:22:23.347Z,12.27
2019-04-30T16:24:55.120Z,12.97
2019-04-30T16:27:25.638Z,13.67
2019-04-30T16:29:55.737Z,13.03
2019-04-30T16:32:28.620Z,12.73
2019-04-30T16:34:59.460Z,14.43
2019-04-30T16:37:29.648Z,13.43
2019-04-30T16:40:00.302Z,13.27
2019-04-30T16:42:30.736Z,14.80
2019-04-30T16:45:00.904Z,16.30
2019-04-30T16:47:30.646Z,14.40
2019-04-30T16:50:00.227Z,15.87
2019-04-30T16:52:29.823Z,14.67
2019-04-30T16:54:59.440Z,14.33
2019-04-30T16:57:30.391Z,15.50
2019-04-30T17:00:00.135Z,15.90
2019-04-30T17:02:31.659Z,16.07
2019-04-30T17:05:12.172Z,16.77
2019-04-30T17:07:43.397Z,19.23
2019-04-30T17:10:29.274Z,19.37
2019-04-30T17:13:00.630Z,19.87
2019-04-30T17:15:35.206Z,19.27
2019-04-30T17:18:05.974Z,17.67
2019-04-30T17:20:35.811Z,19.20
2019-04-30T17:23:06.047Z,18.50
2019-04-30T17:25:37.020Z,17.90
2019-04-30T17:28:09.234Z,16.57
2019-04-30T17:30:39.271Z,16.73
2019-04-30T17:33:09.504Z,18.83
2019-04-30T17:35:41.467Z,17.80
2019-04-30T17:38:11.007Z,17.57
2019-04-30T17:40:41.880Z,18.30
2019-04-30T17:43:12.830Z,19.60
2019-04-30T17:45:42.364Z,19.63
2019-04-30T17:48:15.357Z,19.53
2019-04-30T17:50:45.513Z,20.00
2019-04-30T17:53:16.549Z,19.10
2019-04-30T17:55:46.677Z,19.87
2019-04-30T17:58:16.676Z,19.53
2019-04-30T18:00:48.731Z,18.27
2019-04-30T18:03:21.044Z,18.93
2019-04-30T18:05:50.892Z,19.23
2019-04-30T18:08:20.868Z,18.00
2019-04-30T18:10:53.201Z,18.20
2019-04-30T18:13:22.901Z,19.57
2019-04-30T18:15:54.441Z,16.73
2019-04-30T18:18:28.350Z,18.43
2019-04-30T18:20:59.671Z,17.50
2019-04-30T18:23:50.133Z,17.50
2019-04-30T18:26:20.264Z,17.40
2019-04-30T18:28:56.557Z,17.70
2019-04-30T18:31:26.466Z,16.20
2019-04-30T18:33:56.128Z,16.80
2019-04-30T18:36:26.006Z,17.03
2019-04-30T18:38:55.737Z,16.13
2019-04-30T18:41:25.440Z,17.57
2019-04-30T18:43:56.912Z,16.33
2019-04-30T18:46:26.444Z,17.40
2019-04-30T18:48:55.985Z,17.07
2019-04-30T18:51:36.467Z,16.23
2019-04-30T18:53:56.891Z,16.10
2019-04-30T18:56:30.062Z,16.53
2019-04-30T18:59:01.229Z,16.67
2019-04-30T19:01:30.914Z,17.80
2019-04-30T19:04:01.092Z,17.53
2019-04-30T19:06:31.453Z,16.97
2019-04-30T19:09:09.543Z,18.60
2019-04-30T19:11:43.208Z,15.17
2019-04-30T19:14:33.969Z,16.03
2019-04-30T19:17:21.708Z,16.17
2019-04-30T19:20:02.799Z,17.67
2019-04-30T19:22:32.988Z,19.07
2019-04-30T19:25:04.496Z,17.60
2019-04-30T19:27:35.503Z,16.53
2019-04-30T19:30:09.182Z,16.40
2019-04-30T19:32:39.919Z,15.23
2019-04-30T19:35:10.275Z,16.27
2019-04-30T19:37:40.588Z,16.53
2019-04-30T19:40:11.149Z,17.00
2019-04-30T19:42:42.265Z,14.93
2019-04-30T19:45:12.734Z,15.07
2019-04-30T19:47:43.167Z,15.23
2019-04-30T19:50:14.195Z,15.10
2019-04-30T19:52:44.520Z,16.43
2019-04-30T19:55:16.330Z,15.67
2019-04-30T19:57:48.763Z,16.07
2019-04-30T20:00:20.308Z,16.57
2019-04-30T20:02:50.823Z,14.70
2019-04-30T20:05:20.473Z,14.77
2019-04-30T20:07:50.524Z,15.37
2019-04-30T20:10:20.807Z,14.87
2019-04-30T20:12:50.464Z,15.73
2019-04-30T20:15:24.285Z,16.77
2019-04-30T20:17:52.893Z,16.77
2019-04-30T20:20:23.501Z,16.60
2019-04-30T20:22:53.721Z,17.30
2019-04-30T20:25:23.856Z,16.07
2019-04-30T20:27:54.550Z,16.10
2019-04-30T20:30:24.589Z,16.17
2019-04-30T20:32:54.845Z,16.37
2019-04-30T20:35:26.231Z,17.30
2019-04-30T20:38:12.695Z,16.53
2019-04-30T20:40:57.038Z,16.97
2019-04-30T20:43:18.539Z,16.27
2019-04-30T20:45:49.665Z,17.17
2019-04-30T20:48:20.019Z,16.50
2019-04-30T20:50:50.094Z,15.13
2019-04-30T20:53:20.733Z,16.23
2019-04-30T20:55:51.124Z,16.33
2019-04-30T20:58:21.190Z,16.37
2019-04-30T21:01:01.248Z,16.57
2019-04-30T21:03:24.195Z,15.80
2019-04-30T21:05:55.325Z,16.67
2019-04-30T21:08:27.486Z,17.20
2019-04-30T21:10:59.356Z,17.90
2019-04-30T21:13:32.584Z,16.93
2019-04-30T21:16:02.859Z,17.60
2019-04-30T21:18:32.630Z,16.30
2019-04-30T21:21:02.345Z,17.07
2019-04-30T21:23:33.444Z,16.93
2019-04-30T21:26:03.668Z,16.27
2019-04-30T21:28:34.561Z,18.13
2019-04-30T21:31:10.118Z,16.50
2019-04-30T21:33:42.301Z,16.73
2019-04-30T21:36:15.030Z,18.07
2019-04-30T21:38:45.810Z,17.20
2019-04-30T21:41:16.723Z,17.00
2019-04-30T21:43:48.762Z,17.33
2019-04-30T21:46:22.994Z,16.97
2019-04-30T21:48:53.112Z,17.37
2019-04-30T21:51:24.373Z,17.60
2019-04-30T21:53:55.352Z,17.27
2019-04-30T21:56:27.105Z,18.40
2019-04-30T21:58:57.829Z,18.53
2019-04-30T22:01:28.209Z,17.07
2019-04-30T22:03:59.153Z,17.53
2019-04-30T22:06:33.430Z,19.00
2019-04-30T22:09:07.182Z,18.00
2019-04-30T22:11:39.432Z,19.03
2019-04-30T22:14:11.480Z,18.60
2019-04-30T22:16:44.339Z,17.77
2019-04-30T22:19:15.044Z,18.40
2019-04-30T22:21:45.784Z,19.40
2019-04-30T22:24:16.750Z,19.63
2019-04-30T22:26:48.295Z,18.53
2019-04-30T22:29:19.237Z,19.47
2019-04-30T22:31:52.320Z,18.03
2019-04-30T22:34:22.533Z,20.97
2019-04-30T22:36:52.634Z,20.23
2019-04-30T22:39:25.269Z,19.53
2019-04-30T22:42:04.553Z,21.00
2019-04-30T22:44:37.538Z,19.47
2019-04-30T22:47:07.895Z,19.70
2019-04-30T22:49:38.284Z,20.30
2019-04-30T22:52:08.500Z,21.20
2019-04-30T22:54:38.668Z,21.30
2019-04-30T22:57:08.822Z,21.03
2019-04-30T22:59:49.504Z,21.47
2019-04-30T23:02:13.200Z,19.97
2019-04-30T23:04:50.006Z,21.80
2019-04-30T23:07:20.164Z,21.17
2019-04-30T23:09:50.664Z,21.13
2019-04-30T23:12:22.632Z,22.60
2019-04-30T23:14:52.734Z,21.07
2019-04-30T23:17:22.993Z,20.47
2019-04-30T23:19:53.169Z,20.60
2019-04-30T23:22:23.366Z,21.87
2019-04-30T23:24:53.555Z,23.40
2019-04-30T23:27:23.671Z,22.77
2019-04-30T23:30:03.105Z,22.13
2019-04-30T23:32:27.601Z,22.53
2019-04-30T23:34:59.910Z,21.13
2019-04-30T23:37:29.712Z,20.90
2019-04-30T23:40:27.813Z,24.73
2019-04-30T23:42:58.189Z,22.73
2019-04-30T23:45:28.882Z,23.13
2019-04-30T23:47:59.119Z,22.67
2019-04-30T23:50:29.440Z,22.40
2019-04-30T23:52:59.799Z,22.37
2019-04-30T23:55:30.727Z,22.77
2019-04-30T23:58:03.650Z,23.50
